Time,TemperatureF,DewpointF,PressureIn,WindDirection,WindDirectionDegrees,WindSpeedMPH,WindSpeedGustMPH,Humidity,HourlyPrecipIn,Conditions,Clouds,dailyrainin,SolarRadiationWatts/m^2,SoftwareType,DateUTC
2013-12-29 00:01:00,39.0,32.0,-100.00,West,261,2.0,6.0,77,0.00,,,0.00,0.000000,,2013-12-29 05:01:00,
2013-12-29 00:43:00,39.0,32.0,-100.00,West,261,2.0,6.0,77,0.00,,,0.00,0.000000,,2013-12-29 05:43:00,
2013-12-29 00:53:00,39.0,32.0,-100.00,West,261,2.0,6.0,77,0.00,,,0.00,0.000000,,2013-12-29 05:53:00,
2013-12-29 01:01:00,40.0,32.0,-100.00,WSW,252,1.0,8.0,73,0.00,,,0.00,0.000000,,2013-12-29 06:01:00,
2013-12-29 01:43:00,40.0,32.0,-100.00,WSW,252,1.0,8.0,73,0.00,,,0.00,0.000000,,2013-12-29 06:43:00,
2013-12-29 01:52:00,40.0,32.0,-100.00,WSW,252,1.0,8.0,73,0.00,,,0.00,0.000000,,2013-12-29 06:52:00,
2013-12-29 02:01:00,39.0,33.0,-100.00,WSW,255,1.0,7.0,79,0.00,,,0.00,0.000000,,2013-12-29 07:01:00,
2013-12-29 02:42:00,39.0,33.0,-100.00,WSW,255,1.0,7.0,79,0.00,,,0.00,0.000000,,2013-12-29 07:42:00,
2013-12-29 02:53:00,39.0,33.0,-100.00,WSW,255,1.0,7.0,79,0.00,,,0.00,0.000000,,2013-12-29 07:53:00,
2013-12-29 03:01:00,39.0,33.0,-100.00,WSW,240,2.0,7.0,78,0.00,,,0.00,0.000000,,2013-12-29 08:01:00,
2013-12-29 03:42:00,39.0,33.0,-100.00,WSW,240,2.0,7.0,78,0.00,,,0.00,0.000000,,2013-12-29 08:42:00,
2013-12-29 03:52:00,39.0,33.0,-100.00,WSW,240,2.0,7.0,78,0.00,,,0.00,0.000000,,2013-12-29 08:52:00,
2013-12-29 04:01:00,39.0,35.0,-100.00,West,259,1.0,6.0,84,0.00,,,0.00,0.000000,,2013-12-29 09:01:00,
2013-12-29 04:43:00,39.0,35.0,-100.00,West,259,1.0,6.0,84,0.00,,,0.00,0.000000,,2013-12-29 09:43:00,
2013-12-29 04:53:00,39.0,35.0,-100.00,West,259,1.0,6.0,84,0.00,,,0.00,0.000000,,2013-12-29 09:53:00,
2013-12-29 05:01:00,40.0,34.0,-100.00,WSW,245,1.0,5.0,80,0.00,,,0.00,0.000000,,2013-12-29 10:01:00,
2013-12-29 05:43:00,40.0,34.0,-100.00,WSW,245,1.0,5.0,80,0.00,,,0.00,0.000000,,2013-12-29 10:43:00,
2013-12-29 05:53:00,40.0,34.0,-100.00,WSW,245,1.0,5.0,80,0.00,,,0.00,0.000000,,2013-12-29 10:53:00,
2013-12-29 06:01:00,40.0,36.0,-100.00,North,-999,0.0,5.0,84,0.00,,,0.00,0.000000,,2013-12-29 11:01:00,
2013-12-29 06:43:00,40.0,36.0,-100.00,North,-999,0.0,5.0,84,0.00,,,0.00,0.000000,,2013-12-29 11:43:00,
2013-12-29 06:53:00,40.0,36.0,-100.00,North,-999,0.0,5.0,84,0.00,,,0.00,0.000000,,2013-12-29 11:53:00,
2013-12-29 07:01:00,40.0,36.0,-100.00,WSW,255,1.0,3.0,84,0.00,,,0.00,0.000000,,2013-12-29 12:01:00,
2013-12-29 07:42:00,40.0,36.0,-100.00,WSW,255,1.0,3.0,84,0.00,,,0.00,0.000000,,2013-12-29 12:42:00,
2013-12-29 07:52:00,40.0,36.0,-100.00,WSW,255,1.0,3.0,84,0.00,,,0.00,0.000000,,2013-12-29 12:52:00,
2013-12-29 08:01:00,41.0,36.0,-100.00,SW,230,1.0,5.0,81,0.00,,,-99.99,2.000000,,2013-12-29 13:01:00,
2013-12-29 08:42:00,41.0,36.0,-100.00,SW,230,1.0,5.0,81,0.00,,,-99.99,2.000000,,2013-12-29 13:42:00,
2013-12-29 08:53:00,41.0,36.0,-100.00,SW,230,1.0,5.0,81,0.00,,,-99.99,2.000000,,2013-12-29 13:53:00,
2013-12-29 09:01:00,44.0,36.0,-100.00,WSW,251,2.0,7.0,73,0.00,,,0.00,7.000000,,2013-12-29 14:01:00,
2013-12-29 09:42:00,44.0,36.0,-100.00,WSW,251,2.0,7.0,73,0.00,,,0.00,7.000000,,2013-12-29 14:42:00,
2013-12-29 09:52:00,44.0,36.0,-100.00,WSW,251,2.0,7.0,73,0.00,,,0.00,7.000000,,2013-12-29 14:52:00,
2013-12-29 10:01:00,45.0,36.0,-100.00,SW,231,3.0,11.0,71,0.00,,,0.00,13.000000,,2013-12-29 15:01:00,
2013-12-29 10:44:00,45.0,36.0,-100.00,SW,231,3.0,11.0,71,0.00,,,0.00,13.000000,,2013-12-29 15:44:00,
2013-12-29 10:53:00,45.0,36.0,-100.00,SW,231,3.0,11.0,71,0.00,,,0.00,13.000000,,2013-12-29 15:53:00,
2013-12-29 11:01:00,44.0,39.0,-100.00,SW,233,2.0,11.0,82,0.00,,,0.00,16.000000,,2013-12-29 16:01:00,
2013-12-29 11:43:00,44.0,39.0,-100.00,SW,233,2.0,11.0,82,0.00,,,0.00,16.000000,,2013-12-29 16:43:00,
2013-12-29 11:53:00,44.0,39.0,-100.00,SW,233,2.0,11.0,82,0.00,,,0.00,16.000000,,2013-12-29 16:53:00,
2013-12-29 12:01:00,44.0,41.0,-100.00,North,-999,0.0,7.0,88,0.01,,,0.01,22.000000,,2013-12-29 17:01:00,
2013-12-29 12:42:00,44.0,41.0,-100.00,North,-999,0.0,7.0,88,0.01,,,0.01,22.000000,,2013-12-29 17:42:00,
2013-12-29 12:52:00,44.0,41.0,-100.00,North,-999,0.0,7.0,88,0.01,,,0.01,22.000000,,2013-12-29 17:52:00,
2013-12-29 13:01:00,43.0,42.0,-100.00,ESE,113,1.0,3.0,95,0.10,,,0.11,9.000000,,2013-12-29 18:01:00,
2013-12-29 13:42:00,43.0,42.0,-100.00,ESE,113,1.0,3.0,95,0.10,,,0.11,9.000000,,2013-12-29 18:42:00,
2013-12-29 13:53:00,43.0,42.0,-100.00,ESE,113,1.0,3.0,95,0.10,,,0.11,9.000000,,2013-12-29 18:53:00,
2013-12-29 14:01:00,44.0,43.0,-100.00,ESE,123,2.0,5.0,97,0.10,,,0.21,11.000000,,2013-12-29 19:01:00,
2013-12-29 14:43:00,44.0,43.0,-100.00,ESE,123,2.0,5.0,97,0.10,,,0.21,11.000000,,2013-12-29 19:43:00,
2013-12-29 14:52:00,44.0,43.0,-100.00,ESE,123,2.0,5.0,97,0.10,,,0.21,11.000000,,2013-12-29 19:52:00,
2013-12-29 15:01:00,44.0,43.0,-100.00,ESE,116,5.0,13.0,98,0.18,,,0.39,4.000000,,2013-12-29 20:01:00,
2013-12-29 15:42:00,44.0,43.0,-100.00,ESE,116,5.0,13.0,98,0.18,,,0.39,4.000000,,2013-12-29 20:42:00,
2013-12-29 15:53:00,44.0,43.0,-100.00,ESE,116,5.0,13.0,98,0.18,,,0.39,4.000000,,2013-12-29 20:53:00,
2013-12-29 16:01:00,46.0,46.0,-100.00,SE,130,6.0,15.0,99,0.33,,,0.72,1.000000,,2013-12-29 21:01:00,
2013-12-29 16:43:00,46.0,46.0,-100.00,SE,130,6.0,15.0,99,0.33,,,0.72,1.000000,,2013-12-29 21:43:00,
2013-12-29 16:53:00,46.0,46.0,-100.00,SE,130,6.0,15.0,99,0.33,,,0.72,1.000000,,2013-12-29 21:53:00,
2013-12-29 17:01:00,46.0,45.0,-100.00,SE,125,9.0,22.0,98,0.47,,,1.19,0.000000,,2013-12-29 22:01:00,
2013-12-29 17:42:00,46.0,45.0,-100.00,SE,125,9.0,22.0,98,0.47,,,1.19,0.000000,,2013-12-29 22:42:00,
2013-12-29 17:52:00,46.0,45.0,-100.00,SE,125,9.0,22.0,98,0.47,,,1.19,0.000000,,2013-12-29 22:52:00,
2013-12-29 18:01:00,50.0,50.0,-100.00,SE,127,2.0,17.0,99,0.38,,,1.57,0.000000,,2013-12-29 23:01:00,
2013-12-29 18:42:00,50.0,50.0,-100.00,SE,127,2.0,17.0,99,0.38,,,1.57,0.000000,,2013-12-29 23:42:00,
2013-12-29 18:53:00,50.0,50.0,-100.00,SE,127,2.0,17.0,99,0.38,,,1.57,0.000000,,2013-12-29 23:53:00,
2013-12-29 19:01:00,54.0,54.0,-100.00,WSW,248,6.0,19.0,100,0.08,,,1.65,0.000000,,2013-12-30 00:01:00,
2013-12-29 19:22:00,54.0,54.0,-100.00,WSW,248,6.0,19.0,100,0.08,,,1.65,0.000000,,2013-12-30 00:22:00,
2013-12-29 19:33:00,54.0,54.0,-100.00,WSW,248,6.0,19.0,100,0.08,,,1.65,0.000000,,2013-12-30 00:33:00,
2013-12-29 19:42:00,54.0,54.0,-100.00,WSW,248,6.0,19.0,100,0.08,,,1.65,0.000000,,2013-12-30 00:42:00,
2013-12-29 19:53:00,54.0,54.0,-100.00,WSW,248,6.0,19.0,100,0.08,,,1.65,0.000000,,2013-12-30 00:53:00,
2013-12-29 20:01:00,51.0,51.0,-100.00,WNW,288,4.0,15.0,99,0.00,,,1.65,0.000000,,2013-12-30 01:01:00,
2013-12-29 20:43:00,51.0,51.0,-100.00,WNW,288,4.0,15.0,99,0.00,,,1.65,0.000000,,2013-12-30 01:43:00,
2013-12-29 20:52:00,51.0,51.0,-100.00,WNW,288,4.0,15.0,99,0.00,,,1.65,0.000000,,2013-12-30 01:52:00,
2013-12-29 21:01:00,41.0,40.0,-100.00,NW,323,3.0,12.0,98,0.00,,,1.65,0.000000,,2013-12-30 02:01:00,
2013-12-29 21:42:00,41.0,40.0,-100.00,NW,323,3.0,12.0,98,0.00,,,1.65,0.000000,,2013-12-30 02:42:00,
2013-12-29 21:52:00,41.0,40.0,-100.00,NW,323,3.0,12.0,98,0.00,,,1.65,0.000000,,2013-12-30 02:52:00,
2013-12-29 22:01:00,41.0,40.0,-100.00,NNW,339,4.0,15.0,98,0.01,,,-99.99,0.000000,,2013-12-30 03:01:00,
2013-12-29 22:43:00,41.0,40.0,-100.00,NNW,339,4.0,15.0,98,0.01,,,-99.99,0.000000,,2013-12-30 03:43:00,
2013-12-29 22:54:00,41.0,40.0,-100.00,NNW,339,4.0,15.0,98,0.01,,,-99.99,0.000000,,2013-12-30 03:54:00,
2013-12-29 23:01:00,41.0,40.0,-100.00,NNW,331,3.0,13.0,96,0.00,,,1.66,0.000000,,2013-12-30 04:01:00,
2013-12-29 23:43:00,41.0,40.0,-100.00,NNW,331,3.0,13.0,96,0.00,,,1.66,0.000000,,2013-12-30 04:43:00,
2013-12-29 23:53:00,41.0,40.0,-100.00,NNW,331,3.0,13.0,96,0.00,,,1.66,0.000000,,2013-12-30 04:53:00,